sensor_id;sensor_type;location;lat;lon;timestamp;temperature;humidity
21805;DHT22;11064;47.102;15.452;2023-02-28T05:02:57;-0.90;98.80
21805;DHT22;11064;47.102;15.452;2023-02-28T05:05:23;-0.90;99.00
21805;DHT22;11064;47.102;15.452;2023-02-28T05:07:48;-0.90;98.60
21805;DHT22;11064;47.102;15.452;2023-02-28T05:10:14;-0.90;98.60
21805;DHT22;11064;47.102;15.452;2023-02-28T05:12:40;-0.80;98.70
21805;DHT22;11064;47.102;15.452;2023-02-28T05:15:07;-0.80;98.10
21805;DHT22;11064;47.102;15.452;2023-02-28T05:17:33;-0.70;98.20
21805;DHT22;11064;47.102;15.452;2023-02-28T05:19:59;-0.80;98.70
21805;DHT22;11064;47.102;15.452;2023-02-28T05:22:25;-0.80;98.00
21805;DHT22;11064;47.102;15.452;2023-02-28T05:24:51;-0.90;98.10
21805;DHT22;11064;47.102;15.452;2023-02-28T05:27:17;-0.90;98.70
21805;DHT22;11064;47.102;15.452;2023-02-28T05:29:42;-0.90;98.90
21805;DHT22;11064;47.102;15.452;2023-02-28T05:32:11;-0.90;98.40
21805;DHT22;11064;47.102;15.452;2023-02-28T05:34:38;-0.90;98.10
21805;DHT22;11064;47.102;15.452;2023-02-28T05:37:05;-1.00;98.40
21805;DHT22;11064;47.102;15.452;2023-02-28T05:39:31;-0.90;98.20
21805;DHT22;11064;47.102;15.452;2023-02-28T05:41:57;-0.90;98.20
21805;DHT22;11064;47.102;15.452;2023-02-28T05:44:23;-1.00;98.10
21805;DHT22;11064;47.102;15.452;2023-02-28T05:46:49;-1.00;98.30
21805;DHT22;11064;47.102;15.452;2023-02-28T05:49:15;-1.00;98.10
21805;DHT22;11064;47.102;15.452;2023-02-28T05:51:41;-1.00;98.30
21805;DHT22;11064;47.102;15.452;2023-02-28T05:54:08;-1.00;98.50
21805;DHT22;11064;47.102;15.452;2023-02-28T05:56:34;-1.00;98.30
21805;DHT22;11064;47.102;15.452;2023-02-28T05:59:01;-1.00;98.60
21805;DHT22;11064;47.102;15.452;2023-02-28T06:01:34;-1.00;98.80
21805;DHT22;11064;47.102;15.452;2023-02-28T06:04:03;-1.00;99.40
21805;DHT22;11064;47.102;15.452;2023-02-28T06:06:29;-1.00;99.30
21805;DHT22;11064;47.102;15.452;2023-02-28T06:08:56;-0.90;99.30
21805;DHT22;11064;47.102;15.452;2023-02-28T06:11:22;-0.90;99.20
21805;DHT22;11064;47.102;15.452;2023-02-28T06:13:59;-0.90;98.90
21805;DHT22;11064;47.102;15.452;2023-02-28T06:16:28;-0.90;98.90
21805;DHT22;11064;47.102;15.452;2023-02-28T06:18:54;-0.90;99.30
21805;DHT22;11064;47.102;15.452;2023-02-28T06:21:22;-0.80;99.80
21805;DHT22;11064;47.102;15.452;2023-02-28T06:23:48;-0.80;99.70
21805;DHT22;11064;47.102;15.452;2023-02-28T06:26:14;-0.70;99.50
21805;DHT22;11064;47.102;15.452;2023-02-28T06:28:40;-0.70;99.90
21805;DHT22;11064;47.102;15.452;2023-02-28T06:31:10;-0.80;99.40
21805;DHT22;11064;47.102;15.452;2023-02-28T06:33:37;-0.90;99.90
21805;DHT22;11064;47.102;15.452;2023-02-28T06:36:04;-0.90;99.90
21805;DHT22;11064;47.102;15.452;2023-02-28T06:38:31;-0.90;99.90
21805;DHT22;11064;47.102;15.452;2023-02-28T06:40:59;-0.90;99.90
21805;DHT22;11064;47.102;15.452;2023-02-28T06:43:28;-0.80;99.90
21805;DHT22;11064;47.102;15.452;2023-02-28T06:45:56;-0.70;99.90
21805;DHT22;11064;47.102;15.452;2023-02-28T06:48:22;-0.70;99.80
21805;DHT22;11064;47.102;15.452;2023-02-28T06:50:48;-0.70;99.90
21805;DHT22;11064;47.102;15.452;2023-02-28T06:53:14;-0.60;99.90
21805;DHT22;11064;47.102;15.452;2023-02-28T06:55:40;-0.60;99.50
21805;DHT22;11064;47.102;15.452;2023-02-28T06:58:06;-0.50;99.90
21805;DHT22;11064;47.102;15.452;2023-02-28T07:00:44;-0.40;99.70
21805;DHT22;11064;47.102;15.452;2023-02-28T07:03:11;-0.40;99.10
21805;DHT22;11064;47.102;15.452;2023-02-28T07:05:38;-0.40;99.20
21805;DHT22;11064;47.102;15.452;2023-02-28T07:08:05;-0.30;99.40
21805;DHT22;11064;47.102;15.452;2023-02-28T07:10:37;-0.30;99.10
21805;DHT22;11064;47.102;15.452;2023-02-28T07:13:05;-0.30;98.90
21805;DHT22;11064;47.102;15.452;2023-02-28T07:15:31;-0.30;99.00
21805;DHT22;11064;47.102;15.452;2023-02-28T07:17:57;-0.20;99.40
21805;DHT22;11064;47.102;15.452;2023-02-28T07:20:24;-0.20;98.80
21805;DHT22;11064;47.102;15.452;2023-02-28T07:22:50;-0.30;98.90
21805;DHT22;11064;47.102;15.452;2023-02-28T07:25:28;-0.30;99.10
21805;DHT22;11064;47.102;15.452;2023-02-28T07:27:55;-0.30;99.50
21805;DHT22;11064;47.102;15.452;2023-02-28T07:30:21;-0.30;99.40
21805;DHT22;11064;47.102;15.452;2023-02-28T07:32:48;-0.10;99.40
21805;DHT22;11064;47.102;15.452;2023-02-28T07:35:14;-0.10;99.50
21805;DHT22;11064;47.102;15.452;2023-02-28T07:37:41;0.00;99.00
21805;DHT22;11064;47.102;15.452;2023-02-28T07:40:10;0.00;98.50
21805;DHT22;11064;47.102;15.452;2023-02-28T07:42:41;-0.10;99.00
21805;DHT22;11064;47.102;15.452;2023-02-28T07:45:08;0.00;99.40
21805;DHT22;11064;47.102;15.452;2023-02-28T07:47:38;0.10;99.00
21805;DHT22;11064;47.102;15.452;2023-02-28T07:50:06;0.20;98.70
21805;DHT22;11064;47.102;15.452;2023-02-28T07:52:32;0.20;98.60
21805;DHT22;11064;47.102;15.452;2023-02-28T07:54:58;0.30;98.30
21805;DHT22;11064;47.102;15.452;2023-02-28T07:57:24;0.30;97.70
21805;DHT22;11064;47.102;15.452;2023-02-28T07:59:51;0.20;98.30
21805;DHT22;11064;47.102;15.452;2023-02-28T08:02:18;0.30;98.00
21805;DHT22;11064;47.102;15.452;2023-02-28T08:04:45;0.20;98.00
21805;DHT22;11064;47.102;15.452;2023-02-28T08:07:13;0.30;98.20
21805;DHT22;11064;47.102;15.452;2023-02-28T08:09:40;0.40;98.00
21805;DHT22;11064;47.102;15.452;2023-02-28T08:12:07;0.40;97.70
21805;DHT22;11064;47.102;15.452;2023-02-28T08:14:33;0.50;97.80
21805;DHT22;11064;47.102;15.452;2023-02-28T08:16:59;0.70;98.30
21805;DHT22;11064;47.102;15.452;2023-02-28T08:19:25;0.70;97.10
21805;DHT22;11064;47.102;15.452;2023-02-28T08:21:51;0.60;97.90
21805;DHT22;11064;47.102;15.452;2023-02-28T08:24:17;0.60;97.30
21805;DHT22;11064;47.102;15.452;2023-02-28T08:26:43;0.70;97.30
21805;DHT22;11064;47.102;15.452;2023-02-28T08:29:09;0.60;97.60
21805;DHT22;11064;47.102;15.452;2023-02-28T08:31:35;0.70;97.10
21805;DHT22;11064;47.102;15.452;2023-02-28T08:34:09;0.80;96.90
21805;DHT22;11064;47.102;15.452;2023-02-28T08:36:36;0.80;97.00
21805;DHT22;11064;47.102;15.452;2023-02-28T08:39:03;0.90;97.10
21805;DHT22;11064;47.102;15.452;2023-02-28T08:41:29;1.00;97.10
21805;DHT22;11064;47.102;15.452;2023-02-28T08:43:55;1.20;96.60
21805;DHT22;11064;47.102;15.452;2023-02-28T08:46:21;1.40;96.90
21805;DHT22;11064;47.102;15.452;2023-02-28T08:48:47;1.70;95.60
21805;DHT22;11064;47.102;15.452;2023-02-28T08:51:15;2.00;95.20
21805;DHT22;11064;47.102;15.452;2023-02-28T08:53:44;2.20;94.10
21805;DHT22;11064;47.102;15.452;2023-02-28T08:56:13;2.00;94.30
21805;DHT22;11064;47.102;15.452;2023-02-28T08:58:40;1.90;94.00
21805;DHT22;11064;47.102;15.452;2023-02-28T09:01:14;2.10;94.20
21805;DHT22;11064;47.102;15.452;2023-02-28T09:03:41;2.00;93.40
21805;DHT22;11064;47.102;15.452;2023-02-28T09:06:08;1.90;93.70
21805;DHT22;11064;47.102;15.452;2023-02-28T09:08:35;1.90;93.60
21805;DHT22;11064;47.102;15.452;2023-02-28T09:11:01;1.70;94.30
21805;DHT22;11064;47.102;15.452;2023-02-28T09:13:28;1.70;94.30
21805;DHT22;11064;47.102;15.452;2023-02-28T09:15:56;1.80;94.50
21805;DHT22;11064;47.102;15.452;2023-02-28T09:18:23;2.10;94.30
21805;DHT22;11064;47.102;15.452;2023-02-28T09:20:48;2.20;94.00
21805;DHT22;11064;47.102;15.452;2023-02-28T09:23:16;2.50;93.40
21805;DHT22;11064;47.102;15.452;2023-02-28T09:25:50;2.60;92.60
21805;DHT22;11064;47.102;15.452;2023-02-28T09:28:17;2.80;92.30
21805;DHT22;11064;47.102;15.452;2023-02-28T09:30:48;3.00;92.30
21805;DHT22;11064;47.102;15.452;2023-02-28T09:33:15;3.10;92.40
21805;DHT22;11064;47.102;15.452;2023-02-28T09:35:42;3.20;91.40
21805;DHT22;11064;47.102;15.452;2023-02-28T09:38:10;3.20;91.40
21805;DHT22;11064;47.102;15.452;2023-02-28T09:40:53;3.20;90.90
21805;DHT22;11064;47.102;15.452;2023-02-28T09:43:22;3.60;91.00
21805;DHT22;11064;47.102;15.452;2023-02-28T09:46:06;3.90;90.20
21805;DHT22;11064;47.102;15.452;2023-02-28T09:48:37;3.90;88.40
21805;DHT22;11064;47.102;15.452;2023-02-28T09:51:15;3.30;89.20
21805;DHT22;11064;47.102;15.452;2023-02-28T09:53:44;3.20;90.00
21805;DHT22;11064;47.102;15.452;2023-02-28T09:56:20;3.20;91.00
21805;DHT22;11064;47.102;15.452;2023-02-28T09:59:02;3.30;91.30
21805;DHT22;11064;47.102;15.452;2023-02-28T10:09:49;4.70;85.90
21805;DHT22;11064;47.102;15.452;2023-02-28T10:12:18;4.90;82.40
21805;DHT22;11064;47.102;15.452;2023-02-28T10:14:47;4.50;84.60
21805;DHT22;11064;47.102;15.452;2023-02-28T10:17:26;4.50;86.30
21805;DHT22;11064;47.102;15.452;2023-02-28T10:20:07;4.80;84.10
21805;DHT22;11064;47.102;15.452;2023-02-28T10:22:52;4.50;83.50
21805;DHT22;11064;47.102;15.452;2023-02-28T10:25:26;4.40;84.40
21805;DHT22;11064;47.102;15.452;2023-02-28T10:28:04;4.70;84.00
21805;DHT22;11064;47.102;15.452;2023-02-28T10:30:31;4.80;82.80
21805;DHT22;11064;47.102;15.452;2023-02-28T10:32:57;5.30;81.70
21805;DHT22;11064;47.102;15.452;2023-02-28T10:35:25;5.50;81.00
21805;DHT22;11064;47.102;15.452;2023-02-28T10:37:57;5.80;80.00
21805;DHT22;11064;47.102;15.452;2023-02-28T10:45:22;6.20;78.00
21805;DHT22;11064;47.102;15.452;2023-02-28T10:47:55;6.60;75.70
21805;DHT22;11064;47.102;15.452;2023-02-28T10:52:55;6.80;73.90
21805;DHT22;11064;47.102;15.452;2023-02-28T10:55:30;6.90;74.40
21805;DHT22;11064;47.102;15.452;2023-02-28T10:57:57;6.90;74.30
21805;DHT22;11064;47.102;15.452;2023-02-28T11:00:25;6.40;73.50
21805;DHT22;11064;47.102;15.452;2023-02-28T11:02:51;6.30;74.30
21805;DHT22;11064;47.102;15.452;2023-02-28T11:05:24;6.40;76.40
21805;DHT22;11064;47.102;15.452;2023-02-28T11:08:14;6.40;74.50
21805;DHT22;11064;47.102;15.452;2023-02-28T11:10:47;6.60;73.90
21805;DHT22;11064;47.102;15.452;2023-02-28T11:13:21;6.90;73.30
21805;DHT22;11064;47.102;15.452;2023-02-28T11:15:58;7.10;71.50
21805;DHT22;11064;47.102;15.452;2023-02-28T11:18:41;7.10;71.40
21805;DHT22;11064;47.102;15.452;2023-02-28T11:21:09;6.10;70.50
21805;DHT22;11064;47.102;15.452;2023-02-28T11:23:37;6.30;74.70
21805;DHT22;11064;47.102;15.452;2023-02-28T11:26:06;6.60;73.90
21805;DHT22;11064;47.102;15.452;2023-02-28T11:28:39;6.40;74.40
21805;DHT22;11064;47.102;15.452;2023-02-28T11:36:21;5.80;74.40
21805;DHT22;11064;47.102;15.452;2023-02-28T11:38:51;6.20;75.10
21805;DHT22;11064;47.102;15.452;2023-02-28T11:46:49;6.00;74.40
21805;DHT22;11064;47.102;15.452;2023-02-28T12:06:55;5.90;75.80
21805;DHT22;11064;47.102;15.452;2023-02-28T12:12:48;6.90;74.90
21805;DHT22;11064;47.102;15.452;2023-02-28T12:15:31;6.90;74.10
21805;DHT22;11064;47.102;15.452;2023-02-28T12:18:37;6.90;71.90
21805;DHT22;11064;47.102;15.452;2023-02-28T12:27:07;6.70;72.60
21805;DHT22;11064;47.102;15.452;2023-02-28T12:29:58;6.90;71.90
21805;DHT22;11064;47.102;15.452;2023-02-28T12:32:36;7.00;72.90
21805;DHT22;11064;47.102;15.452;2023-02-28T12:35:10;6.80;73.00
21805;DHT22;11064;47.102;15.452;2023-02-28T12:43:44;7.00;73.70
21805;DHT22;11064;47.102;15.452;2023-02-28T12:46:25;6.50;72.20
21805;DHT22;11064;47.102;15.452;2023-02-28T12:48:53;5.40;75.10
21805;DHT22;11064;47.102;15.452;2023-02-28T12:51:21;5.30;77.40
21805;DHT22;11064;47.102;15.452;2023-02-28T13:08:41;7.00;76.00
21805;DHT22;11064;47.102;15.452;2023-02-28T13:11:24;7.20;74.00
21805;DHT22;11064;47.102;15.452;2023-02-28T13:13:57;6.50;74.00
21805;DHT22;11064;47.102;15.452;2023-02-28T13:16:24;6.60;75.60
21805;DHT22;11064;47.102;15.452;2023-02-28T13:18:50;6.50;75.00
21805;DHT22;11064;47.102;15.452;2023-02-28T13:21:28;6.20;76.90
21805;DHT22;11064;47.102;15.452;2023-02-28T13:29:04;6.40;76.80
21805;DHT22;11064;47.102;15.452;2023-02-28T13:34:35;6.40;76.10
21805;DHT22;11064;47.102;15.452;2023-02-28T13:39:54;6.00;78.10
21805;DHT22;11064;47.102;15.452;2023-02-28T13:50:40;5.40;82.60
21805;DHT22;11064;47.102;15.452;2023-02-28T13:55:57;6.10;79.80
21805;DHT22;11064;47.102;15.452;2023-02-28T14:01:28;6.40;78.70
21805;DHT22;11064;47.102;15.452;2023-02-28T14:07:00;6.50;76.70
21805;DHT22;11064;47.102;15.452;2023-02-28T14:11:52;5.60;80.10
21805;DHT22;11064;47.102;15.452;2023-02-28T14:17:13;4.80;84.00
21805;DHT22;11064;47.102;15.452;2023-02-28T14:19:44;4.70;85.00
21805;DHT22;11064;47.102;15.452;2023-02-28T14:22:43;4.70;84.90
21805;DHT22;11064;47.102;15.452;2023-02-28T14:25:23;4.60;84.10
21805;DHT22;11064;47.102;15.452;2023-02-28T14:31:02;4.40;85.30
21805;DHT22;11064;47.102;15.452;2023-02-28T14:36:47;4.20;87.30
21805;DHT22;11064;47.102;15.452;2023-02-28T14:39:16;4.10;87.00
21805;DHT22;11064;47.102;15.452;2023-02-28T14:41:43;4.10;87.20
21805;DHT22;11064;47.102;15.452;2023-02-28T14:46:45;3.50;87.40
21805;DHT22;11064;47.102;15.452;2023-02-28T14:49:21;3.50;87.60
21805;DHT22;11064;47.102;15.452;2023-02-28T14:51:49;3.60;88.30
21805;DHT22;11064;47.102;15.452;2023-02-28T14:54:20;3.60;88.30
21805;DHT22;11064;47.102;15.452;2023-02-28T14:56:50;3.70;89.30
21805;DHT22;11064;47.102;15.452;2023-02-28T14:59:35;3.60;89.80
21805;DHT22;11064;47.102;15.452;2023-02-28T15:02:21;3.70;89.40
21805;DHT22;11064;47.102;15.452;2023-02-28T15:04:59;3.70;90.00
21805;DHT22;11064;47.102;15.452;2023-02-28T15:07:26;3.80;89.20
21805;DHT22;11064;47.102;15.452;2023-02-28T15:12:37;4.00;89.30
21805;DHT22;11064;47.102;15.452;2023-02-28T15:15:05;4.10;88.20
21805;DHT22;11064;47.102;15.452;2023-02-28T15:17:34;3.90;89.20
21805;DHT22;11064;47.102;15.452;2023-02-28T15:20:00;3.90;88.10
21805;DHT22;11064;47.102;15.452;2023-02-28T15:22:36;3.90;89.30
21805;DHT22;11064;47.102;15.452;2023-02-28T15:25:04;3.80;88.90
21805;DHT22;11064;47.102;15.452;2023-02-28T15:27:32;3.70;89.30
21805;DHT22;11064;47.102;15.452;2023-02-28T15:30:17;3.70;89.80
21805;DHT22;11064;47.102;15.452;2023-02-28T15:32:43;3.60;90.00
21805;DHT22;11064;47.102;15.452;2023-02-28T15:38:00;3.70;90.40
21805;DHT22;11064;47.102;15.452;2023-02-28T15:40:32;3.50;90.50
21805;DHT22;11064;47.102;15.452;2023-02-28T15:43:28;3.60;90.40
21805;DHT22;11064;47.102;15.452;2023-02-28T15:46:03;3.70;90.20
21805;DHT22;11064;47.102;15.452;2023-02-28T15:56:23;3.80;90.20
21805;DHT22;11064;47.102;15.452;2023-02-28T15:58:50;3.90;90.20
21805;DHT22;11064;47.102;15.452;2023-02-28T16:01:29;3.90;90.20
21805;DHT22;11064;47.102;15.452;2023-02-28T16:04:00;3.80;90.10
21805;DHT22;11064;47.102;15.452;2023-02-28T16:06:39;3.70;90.60
21805;DHT22;11064;47.102;15.452;2023-02-28T16:09:13;3.60;91.40
21805;DHT22;11064;47.102;15.452;2023-02-28T16:11:51;3.60;91.00
21805;DHT22;11064;47.102;15.452;2023-02-28T16:14:26;3.40;90.90
21805;DHT22;11064;47.102;15.452;2023-02-28T16:17:02;3.20;90.90
21805;DHT22;11064;47.102;15.452;2023-02-28T16:19:29;3.10;90.80
21805;DHT22;11064;47.102;15.452;2023-02-28T16:21:55;2.90;91.30
21805;DHT22;11064;47.102;15.452;2023-02-28T16:24:20;2.90;92.20
21805;DHT22;11064;47.102;15.452;2023-02-28T16:26:48;2.90;92.20
21805;DHT22;11064;47.102;15.452;2023-02-28T16:29:30;2.80;92.60
21805;DHT22;11064;47.102;15.452;2023-02-28T16:31:56;2.70;92.70
21805;DHT22;11064;47.102;15.452;2023-02-28T16:34:23;2.70;92.90
21805;DHT22;11064;47.102;15.452;2023-02-28T16:36:50;2.70;92.90
21805;DHT22;11064;47.102;15.452;2023-02-28T16:39:16;2.60;93.10
21805;DHT22;11064;47.102;15.452;2023-02-28T16:41:44;2.50;93.00
21805;DHT22;11064;47.102;15.452;2023-02-28T16:44:15;2.60;92.90
21805;DHT22;11064;47.102;15.452;2023-02-28T16:46:43;2.60;92.80
21805;DHT22;11064;47.102;15.452;2023-02-28T16:49:11;2.50;93.10
21805;DHT22;11064;47.102;15.452;2023-02-28T16:51:38;2.50;93.30
21805;DHT22;11064;47.102;15.452;2023-02-28T16:54:04;2.50;94.00
21805;DHT22;11064;47.102;15.452;2023-02-28T16:56:30;2.40;94.40
21805;DHT22;11064;47.102;15.452;2023-02-28T16:59:01;2.30;94.60
21805;DHT22;11064;47.102;15.452;2023-02-28T17:01:27;2.30;94.80
21805;DHT22;11064;47.102;15.452;2023-02-28T17:03:54;2.30;94.80
21805;DHT22;11064;47.102;15.452;2023-02-28T17:06:24;2.30;95.00
21805;DHT22;11064;47.102;15.452;2023-02-28T17:08:51;2.30;95.70
21805;DHT22;11064;47.102;15.452;2023-02-28T17:11:18;2.30;96.30
21805;DHT22;11064;47.102;15.452;2023-02-28T17:13:44;2.20;96.00
21805;DHT22;11064;47.102;15.452;2023-02-28T17:16:32;2.20;96.10
21805;DHT22;11064;47.102;15.452;2023-02-28T17:19:01;2.20;96.10
21805;DHT22;11064;47.102;15.452;2023-02-28T17:21:28;2.20;96.20
21805;DHT22;11064;47.102;15.452;2023-02-28T17:23:54;2.20;96.50
21805;DHT22;11064;47.102;15.452;2023-02-28T17:26:21;2.10;96.40
21805;DHT22;11064;47.102;15.452;2023-02-28T17:28:51;2.10;96.40
21805;DHT22;11064;47.102;15.452;2023-02-28T17:31:18;2.10;96.60
21805;DHT22;11064;47.102;15.452;2023-02-28T17:33:44;2.10;96.90
21805;DHT22;11064;47.102;15.452;2023-02-28T17:36:14;2.10;97.00
21805;DHT22;11064;47.102;15.452;2023-02-28T17:38:41;2.10;97.30
21805;DHT22;11064;47.102;15.452;2023-02-28T17:41:10;2.10;98.40
21805;DHT22;11064;47.102;15.452;2023-02-28T17:43:36;2.10;98.40
21805;DHT22;11064;47.102;15.452;2023-02-28T17:46:02;2.10;98.00
21805;DHT22;11064;47.102;15.452;2023-02-28T17:48:30;2.10;97.40
21805;DHT22;11064;47.102;15.452;2023-02-28T17:50:57;2.10;97.50
21805;DHT22;11064;47.102;15.452;2023-02-28T17:53:23;2.10;97.50
21805;DHT22;11064;47.102;15.452;2023-02-28T17:55:50;2.10;97.60
21805;DHT22;11064;47.102;15.452;2023-02-28T17:58:16;2.00;97.80
21805;DHT22;11064;47.102;15.452;2023-02-28T18:00:44;2.10;97.70
21805;DHT22;11064;47.102;15.452;2023-02-28T18:03:12;2.00;97.80
21805;DHT22;11064;47.102;15.452;2023-02-28T18:05:39;2.00;97.90
21805;DHT22;11064;47.102;15.452;2023-02-28T18:08:05;2.00;98.40
21805;DHT22;11064;47.102;15.452;2023-02-28T18:10:31;2.00;99.10
21805;DHT22;11064;47.102;15.452;2023-02-28T18:12:59;2.00;99.30
21805;DHT22;11064;47.102;15.452;2023-02-28T18:15:25;1.80;99.60
21805;DHT22;11064;47.102;15.452;2023-02-28T18:17:52;1.80;99.90
21805;DHT22;11064;47.102;15.452;2023-02-28T18:20:18;1.80;99.90
21805;DHT22;11064;47.102;15.452;2023-02-28T18:22:45;1.80;99.90
21805;DHT22;11064;47.102;15.452;2023-02-28T18:25:12;1.80;99.90
21805;DHT22;11064;47.102;15.452;2023-02-28T18:27:45;1.80;99.90
21805;DHT22;11064;47.102;15.452;2023-02-28T18:30:28;1.90;99.90
21805;DHT22;11064;47.102;15.452;2023-02-28T18:32:58;1.80;99.90
21805;DHT22;11064;47.102;15.452;2023-02-28T18:35:26;1.80;99.90
21805;DHT22;11064;47.102;15.452;2023-02-28T18:38:08;1.80;99.90
21805;DHT22;11064;47.102;15.452;2023-02-28T18:40:35;1.80;99.90
21805;DHT22;11064;47.102;15.452;2023-02-28T18:43:01;1.70;99.90
21805;DHT22;11064;47.102;15.452;2023-02-28T18:45:28;1.70;99.90
21805;DHT22;11064;47.102;15.452;2023-02-28T18:47:54;1.70;99.90
21805;DHT22;11064;47.102;15.452;2023-02-28T18:50:21;1.80;99.90
21805;DHT22;11064;47.102;15.452;2023-02-28T18:52:47;1.80;99.90
21805;DHT22;11064;47.102;15.452;2023-02-28T18:55:16;1.90;99.90
21805;DHT22;11064;47.102;15.452;2023-02-28T18:57:47;1.80;99.90
21805;DHT22;11064;47.102;15.452;2023-02-28T19:00:15;1.80;99.90
21805;DHT22;11064;47.102;15.452;2023-02-28T19:02:44;1.70;99.90
21805;DHT22;11064;47.102;15.452;2023-02-28T19:05:12;1.70;99.90
21805;DHT22;11064;47.102;15.452;2023-02-28T19:07:38;1.70;99.90
21805;DHT22;11064;47.102;15.452;2023-02-28T19:10:06;1.70;99.90
21805;DHT22;11064;47.102;15.452;2023-02-28T19:12:34;1.80;99.90
21805;DHT22;11064;47.102;15.452;2023-02-28T19:15:01;1.80;99.90
21805;DHT22;11064;47.102;15.452;2023-02-28T19:17:27;1.80;99.90
21805;DHT22;11064;47.102;15.452;2023-02-28T19:19:53;1.70;99.90
21805;DHT22;11064;47.102;15.452;2023-02-28T19:22:19;1.70;99.90
21805;DHT22;11064;47.102;15.452;2023-02-28T19:24:46;1.70;99.90
21805;DHT22;11064;47.102;15.452;2023-02-28T19:27:12;1.70;99.90
21805;DHT22;11064;47.102;15.452;2023-02-28T19:29:42;1.70;99.90
21805;DHT22;11064;47.102;15.452;2023-02-28T19:32:08;1.60;99.90
21805;DHT22;11064;47.102;15.452;2023-02-28T19:34:34;1.60;99.90
21805;DHT22;11064;47.102;15.452;2023-02-28T19:37:00;1.60;99.90
21805;DHT22;11064;47.102;15.452;2023-02-28T19:39:27;1.70;99.90
21805;DHT22;11064;47.102;15.452;2023-02-28T19:41:53;1.70;99.90
21805;DHT22;11064;47.102;15.452;2023-02-28T19:44:19;1.70;99.90
21805;DHT22;11064;47.102;15.452;2023-02-28T19:46:45;1.80;99.90
21805;DHT22;11064;47.102;15.452;2023-02-28T19:49:12;1.80;99.90
21805;DHT22;11064;47.102;15.452;2023-02-28T19:51:38;1.70;99.90
21805;DHT22;11064;47.102;15.452;2023-02-28T19:54:05;1.70;99.90
21805;DHT22;11064;47.102;15.452;2023-02-28T19:56:32;1.70;99.90
21805;DHT22;11064;47.102;15.452;2023-02-28T19:58:58;1.60;99.90
21805;DHT22;11064;47.102;15.452;2023-02-28T20:01:26;1.60;99.90
21805;DHT22;11064;47.102;15.452;2023-02-28T20:03:52;1.70;99.90
21805;DHT22;11064;47.102;15.452;2023-02-28T20:06:18;1.70;99.90
21805;DHT22;11064;47.102;15.452;2023-02-28T20:08:44;1.60;99.90
21805;DHT22;11064;47.102;15.452;2023-02-28T20:11:14;1.60;99.90
21805;DHT22;11064;47.102;15.452;2023-02-28T20:13:41;1.60;99.90
21805;DHT22;11064;47.102;15.452;2023-02-28T20:16:09;1.60;99.90
21805;DHT22;11064;47.102;15.452;2023-02-28T20:18:37;1.60;99.90
21805;DHT22;11064;47.102;15.452;2023-02-28T20:21:06;1.60;99.90
21805;DHT22;11064;47.102;15.452;2023-02-28T20:23:33;1.60;99.90
21805;DHT22;11064;47.102;15.452;2023-02-28T20:25:59;1.50;99.90
21805;DHT22;11064;47.102;15.452;2023-02-28T20:28:26;1.40;99.90
21805;DHT22;11064;47.102;15.452;2023-02-28T20:30:52;1.40;99.90
21805;DHT22;11064;47.102;15.452;2023-02-28T20:33:19;1.40;99.90
21805;DHT22;11064;47.102;15.452;2023-02-28T20:35:45;1.40;99.90
21805;DHT22;11064;47.102;15.452;2023-02-28T20:38:11;1.40;99.90
21805;DHT22;11064;47.102;15.452;2023-02-28T20:40:38;1.40;99.90
21805;DHT22;11064;47.102;15.452;2023-02-28T20:43:04;1.30;99.90
21805;DHT22;11064;47.102;15.452;2023-02-28T20:45:30;1.30;99.90
21805;DHT22;11064;47.102;15.452;2023-02-28T20:47:57;1.30;99.90
21805;DHT22;11064;47.102;15.452;2023-02-28T20:50:23;1.20;99.90
21805;DHT22;11064;47.102;15.452;2023-02-28T20:52:49;1.20;99.90
21805;DHT22;11064;47.102;15.452;2023-02-28T20:55:16;1.20;99.90
21805;DHT22;11064;47.102;15.452;2023-02-28T20:57:42;1.20;99.90
21805;DHT22;11064;47.102;15.452;2023-02-28T21:00:09;1.10;99.90
21805;DHT22;11064;47.102;15.452;2023-02-28T21:02:44;1.10;99.90
21805;DHT22;11064;47.102;15.452;2023-02-28T21:05:12;1.10;99.90
21805;DHT22;11064;47.102;15.452;2023-02-28T21:07:39;1.10;99.90
21805;DHT22;11064;47.102;15.452;2023-02-28T21:10:05;1.10;99.90
21805;DHT22;11064;47.102;15.452;2023-02-28T21:12:31;1.10;99.90
21805;DHT22;11064;47.102;15.452;2023-02-28T21:14:58;1.10;99.90
21805;DHT22;11064;47.102;15.452;2023-02-28T21:17:24;1.00;99.90
21805;DHT22;11064;47.102;15.452;2023-02-28T21:19:50;1.00;99.90
21805;DHT22;11064;47.102;15.452;2023-02-28T21:22:16;1.00;99.90
21805;DHT22;11064;47.102;15.452;2023-02-28T21:24:43;1.00;99.90
21805;DHT22;11064;47.102;15.452;2023-02-28T21:27:09;1.00;99.90
21805;DHT22;11064;47.102;15.452;2023-02-28T21:29:35;0.90;99.90
21805;DHT22;11064;47.102;15.452;2023-02-28T21:32:01;0.80;99.90
21805;DHT22;11064;47.102;15.452;2023-02-28T21:34:27;0.80;99.90
21805;DHT22;11064;47.102;15.452;2023-02-28T21:36:53;0.70;99.90
21805;DHT22;11064;47.102;15.452;2023-02-28T21:39:22;0.60;99.90
21805;DHT22;11064;47.102;15.452;2023-02-28T21:41:50;0.60;99.90
21805;DHT22;11064;47.102;15.452;2023-02-28T21:44:16;0.60;99.90
21805;DHT22;11064;47.102;15.452;2023-02-28T21:46:48;0.60;99.90
21805;DHT22;11064;47.102;15.452;2023-02-28T21:49:15;0.50;99.90
21805;DHT22;11064;47.102;15.452;2023-02-28T21:51:42;0.60;99.90
21805;DHT22;11064;47.102;15.452;2023-02-28T21:54:11;0.60;99.90
21805;DHT22;11064;47.102;15.452;2023-02-28T21:56:40;0.60;99.90
21805;DHT22;11064;47.102;15.452;2023-02-28T21:59:06;0.60;99.90
21805;DHT22;11064;47.102;15.452;2023-02-28T22:01:37;0.50;99.90
21805;DHT22;11064;47.102;15.452;2023-02-28T22:04:06;0.50;99.90
21805;DHT22;11064;47.102;15.452;2023-02-28T22:06:34;0.50;99.90
21805;DHT22;11064;47.102;15.452;2023-02-28T22:09:02;0.40;99.90
21805;DHT22;11064;47.102;15.452;2023-02-28T22:11:31;0.30;99.90
21805;DHT22;11064;47.102;15.452;2023-02-28T22:13:58;0.20;99.90
21805;DHT22;11064;47.102;15.452;2023-02-28T22:16:27;0.20;99.90
21805;DHT22;11064;47.102;15.452;2023-02-28T22:18:53;0.20;99.90
21805;DHT22;11064;47.102;15.452;2023-02-28T22:21:20;0.20;99.90
21805;DHT22;11064;47.102;15.452;2023-02-28T22:23:47;0.10;99.90
21805;DHT22;11064;47.102;15.452;2023-02-28T22:26:16;0.10;99.90
21805;DHT22;11064;47.102;15.452;2023-02-28T22:28:42;0.20;99.90
21805;DHT22;11064;47.102;15.452;2023-02-28T22:31:15;0.20;99.90
21805;DHT22;11064;47.102;15.452;2023-02-28T22:33:42;0.30;99.90
21805;DHT22;11064;47.102;15.452;2023-02-28T22:36:09;0.30;99.90
21805;DHT22;11064;47.102;15.452;2023-02-28T22:38:35;0.30;99.90
21805;DHT22;11064;47.102;15.452;2023-02-28T22:41:03;0.40;99.90
21805;DHT22;11064;47.102;15.452;2023-02-28T22:43:30;0.40;99.90
21805;DHT22;11064;47.102;15.452;2023-02-28T22:45:59;0.30;99.90
21805;DHT22;11064;47.102;15.452;2023-02-28T22:48:25;0.40;99.90
21805;DHT22;11064;47.102;15.452;2023-02-28T22:51:09;0.30;99.90